Time;durP1;ratioP1;P1;durP2;ratioP2;P2;SDS_P1;SDS_P2;PMS_P1;PMS_P2;Temp;Humidity;BMP_temperature;BMP_pressure;BME280_temperature;BME280_humidity;BME280_pressure;Samples;Min_cycle;Max_cycle;Signal;HPM_P1;HPM_P2
2023/07/05 00:01:14;;;;;;;2.92;2.33;;;13.70;99.90;;;;;;5052699;28;20127;-72
2023/07/05 00:03:40;;;;;;;4.35;2.15;;;13.70;99.90;;;;;;5052940;28;20132;-72
2023/07/05 00:06:06;;;;;;;3.80;2.10;;;13.70;99.90;;;;;;5051963;28;20060;-73
2023/07/05 00:08:33;;;;;;;3.33;1.95;;;13.70;99.90;;;;;;5053090;28;20438;-72
2023/07/05 00:11:06;;;;;;;4.43;2.50;;;13.70;99.90;;;;;;5052656;28;20060;-74
2023/07/05 00:13:32;;;;;;;4.35;2.10;;;13.70;99.90;;;;;;5052842;28;20104;-72
2023/07/05 00:15:59;;;;;;;6.25;2.10;;;13.60;99.90;;;;;;5051225;28;20521;-74
2023/07/05 00:18:25;;;;;;;2.13;1.92;;;13.60;99.90;;;;;;5050553;28;20033;-72
2023/07/05 00:20:51;;;;;;;3.80;1.90;;;13.50;99.90;;;;;;5051908;28;20335;-72
2023/07/05 00:23:17;;;;;;;5.43;2.00;;;13.40;99.90;;;;;;5052373;28;20025;-72
2023/07/05 00:25:43;;;;;;;2.30;1.85;;;13.30;99.90;;;;;;5052707;28;20037;-72
2023/07/05 00:28:09;;;;;;;3.97;2.50;;;13.30;99.90;;;;;;5052052;28;20490;-72
2023/07/05 00:30:34;;;;;;;4.40;2.20;;;13.30;99.90;;;;;;5052229;28;20446;-72
2023/07/05 00:33:00;;;;;;;2.85;1.80;;;13.30;99.90;;;;;;5052231;28;20029;-74
2023/07/05 00:35:26;;;;;;;2.85;2.10;;;13.20;99.90;;;;;;5052190;28;20215;-72
2023/07/05 00:37:51;;;;;;;5.30;1.90;;;13.20;99.90;;;;;;5052550;28;20214;-72
2023/07/05 00:40:18;;;;;;;3.72;1.88;;;13.10;99.90;;;;;;5051725;28;20026;-72
2023/07/05 00:42:44;;;;;;;2.88;1.73;;;13.00;99.90;;;;;;5052477;28;20060;-72
2023/07/05 00:45:09;;;;;;;2.92;1.80;;;12.90;99.90;;;;;;5051965;28;20056;-72
2023/07/05 00:47:37;;;;;;;4.15;1.73;;;12.80;99.90;;;;;;5052521;28;20412;-72
2023/07/05 00:50:32;;;;;;;3.47;2.05;;;12.80;99.90;;;;;;5051559;28;20052;-72
2023/07/05 00:52:58;;;;;;;2.50;2.30;;;12.70;99.90;;;;;;5049668;28;20045;-71
2023/07/05 00:55:27;;;;;;;6.22;2.20;;;12.70;99.90;;;;;;5051179;28;20464;-72
2023/07/05 00:57:53;;;;;;;4.03;2.17;;;12.60;99.90;;;;;;5051973;28;20025;-72
2023/07/05 01:00:21;;;;;;;3.22;2.10;;;12.60;99.90;;;;;;5051787;28;20128;-72
2023/07/05 01:02:52;;;;;;;2.55;2.05;;;12.60;99.90;;;;;;5050699;28;20032;-71
2023/07/05 01:05:19;;;;;;;2.05;1.92;;;12.60;99.90;;;;;;5051188;28;20120;-72
2023/07/05 01:07:46;;;;;;;4.32;2.58;;;12.60;99.90;;;;;;5052520;28;20039;-72
2023/07/05 01:10:18;;;;;;;5.25;2.58;;;12.50;99.90;;;;;;5051424;28;20103;-72
2023/07/05 01:13:05;;;;;;;5.72;2.40;;;12.50;99.90;;;;;;5051658;28;20024;-72
2023/07/05 01:15:50;;;;;;;7.57;2.70;;;12.50;99.90;;;;;;5052130;28;20047;-72
2023/07/05 01:19:03;;;;;;;6.75;2.65;;;12.50;99.90;;;;;;5051186;28;20048;-72
2023/07/05 01:21:43;;;;;;;6.60;2.50;;;12.30;99.90;;;;;;5051825;28;20032;-72
2023/07/05 01:24:26;;;;;;;5.10;2.30;;;12.30;99.90;;;;;;5051392;28;20029;-72
2023/07/05 01:27:23;;;;;;;5.35;2.60;;;12.30;99.90;;;;;;5052216;28;20025;-72
2023/07/05 01:30:07;;;;;;;3.70;2.35;;;12.20;99.90;;;;;;5050989;28;20134;-72
2023/07/05 01:32:33;;;;;;;7.18;2.28;;;12.20;99.90;;;;;;5052007;28;20028;-72
2023/07/05 01:35:12;;;;;;;5.57;2.50;;;12.10;99.90;;;;;;5051337;28;20370;-72
2023/07/05 01:37:42;;;;;;;5.80;2.50;;;12.20;99.90;;;;;;5051854;28;20069;-71
2023/07/05 01:40:26;;;;;;;2.72;2.50;;;12.10;99.90;;;;;;5050695;28;20037;-72
2023/07/05 01:42:58;;;;;;;5.30;2.70;;;12.10;99.90;;;;;;5050989;28;20033;-72
2023/07/05 01:45:52;;;;;;;5.53;2.58;;;12.00;99.90;;;;;;5050717;28;20029;-72
2023/07/05 01:48:53;;;;;;;3.05;2.70;;;12.10;99.90;;;;;;5050699;28;20063;-72
2023/07/05 01:51:36;;;;;;;3.35;2.40;;;11.90;99.90;;;;;;5050811;28;20036;-72
2023/07/05 01:54:15;;;;;;;6.47;2.83;;;11.90;99.90;;;;;;5051484;28;20025;-72
2023/07/05 01:57:00;;;;;;;6.05;2.53;;;11.80;99.90;;;;;;5051427;28;20419;-71
2023/07/05 01:59:32;;;;;;;7.68;2.78;;;11.70;99.90;;;;;;5050777;28;20071;-72
2023/07/05 02:02:00;;;;;;;6.38;2.33;;;11.70;99.90;;;;;;5049710;28;20497;-71
2023/07/05 02:04:26;;;;;;;5.70;3.13;;;11.70;99.90;;;;;;5050723;28;20108;-71
2023/07/05 02:06:53;;;;;;;7.45;2.80;;;11.70;99.90;;;;;;5050947;28;20032;-71
2023/07/05 02:09:19;;;;;;;4.78;3.25;;;11.70;99.90;;;;;;5050834;28;20084;-72
2023/07/05 02:11:45;;;;;;;6.82;2.97;;;11.70;99.90;;;;;;5051099;28;20094;-71
2023/07/05 02:14:11;;;;;;;5.88;2.85;;;11.60;99.90;;;;;;5050635;28;20029;-72
2023/07/05 02:16:38;;;;;;;3.85;2.88;;;11.60;99.90;;;;;;5050870;28;20098;-71
2023/07/05 02:19:06;;;;;;;4.78;2.97;;;11.50;99.90;;;;;;5050990;28;20048;-72
2023/07/05 02:21:32;;;;;;;5.90;2.97;;;11.50;99.90;;;;;;5050787;28;20029;-71
2023/07/05 02:23:58;;;;;;;5.15;2.80;;;11.50;99.90;;;;;;5049620;28;20025;-71
2023/07/05 02:26:23;;;;;;;5.05;3.10;;;11.50;99.90;;;;;;5048817;28;20433;-72
2023/07/05 02:28:49;;;;;;;7.03;3.28;;;11.40;99.90;;;;;;5049076;28;20106;-71
2023/07/05 02:31:15;;;;;;;7.13;3.42;;;11.40;99.90;;;;;;5050108;28;20057;-71
2023/07/05 02:33:44;;;;;;;5.85;3.55;;;11.40;99.90;;;;;;5050706;28;20048;-72
2023/07/05 02:36:12;;;;;;;6.40;3.17;;;11.40;99.90;;;;;;5049616;28;20032;-72
2023/07/05 02:38:39;;;;;;;3.30;3.00;;;11.40;99.90;;;;;;5050397;28;20025;-71
2023/07/05 02:41:05;;;;;;;4.78;3.22;;;11.30;99.90;;;;;;5050490;28;20059;-72
2023/07/05 02:43:30;;;;;;;5.07;3.10;;;11.30;99.90;;;;;;5049558;28;20320;-72
2023/07/05 02:45:56;;;;;;;5.45;2.88;;;11.30;99.90;;;;;;5050499;28;20132;-72
2023/07/05 02:48:22;;;;;;;8.30;3.00;;;11.20;99.90;;;;;;5050040;28;20037;-72
2023/07/05 02:50:48;;;;;;;8.43;3.28;;;11.30;99.90;;;;;;5050304;28;20036;-72
2023/07/05 02:53:13;;;;;;;7.25;3.40;;;11.20;99.90;;;;;;5050132;28;20420;-72
2023/07/05 02:55:39;;;;;;;5.50;2.80;;;11.30;99.90;;;;;;5050922;28;20033;-72
2023/07/05 02:58:05;;;;;;;6.55;3.13;;;11.20;99.90;;;;;;5050487;28;20346;-72
2023/07/05 03:00:31;;;;;;;11.25;3.08;;;11.20;99.90;;;;;;5049635;28;20389;-72
2023/07/05 03:02:57;;;;;;;12.35;3.35;;;11.10;99.90;;;;;;5050307;28;20035;-72
2023/07/05 03:05:23;;;;;;;5.63;2.90;;;11.10;99.90;;;;;;5049801;28;20029;-72
2023/07/05 03:07:49;;;;;;;3.83;3.15;;;11.10;99.90;;;;;;5050686;28;20076;-72
2023/07/05 03:10:14;;;;;;;5.55;2.80;;;11.20;99.90;;;;;;5050242;28;20436;-72
2023/07/05 03:12:40;;;;;;;4.05;3.00;;;11.10;99.90;;;;;;5050597;28;20021;-72
2023/07/05 03:15:07;;;;;;;5.60;3.03;;;11.10;99.90;;;;;;5050583;28;20032;-73
2023/07/05 03:17:33;;;;;;;6.80;3.42;;;11.10;99.90;;;;;;5049850;28;20029;-72
2023/07/05 03:19:59;;;;;;;7.43;3.20;;;11.20;99.90;;;;;;5050267;28;20168;-72
2023/07/05 03:22:28;;;;;;;5.65;2.78;;;11.20;99.90;;;;;;5049513;28;20025;-72
2023/07/05 03:24:54;;;;;;;8.38;2.92;;;11.20;99.90;;;;;;5049875;28;20095;-72
2023/07/05 03:27:20;;;;;;;5.88;2.80;;;11.30;99.90;;;;;;5049399;28;20478;-72
2023/07/05 03:29:47;;;;;;;5.00;2.90;;;11.40;99.90;;;;;;5049960;28;20053;-72
2023/07/05 03:32:13;;;;;;;5.47;2.60;;;11.40;99.90;;;;;;5049274;28;20033;-73
2023/07/05 03:34:39;;;;;;;6.40;2.72;;;11.50;99.90;;;;;;5049636;28;20098;-72
2023/07/05 03:37:05;;;;;;;4.07;3.10;;;11.50;99.90;;;;;;5049442;28;20482;-72
2023/07/05 03:39:32;;;;;;;3.50;2.75;;;11.50;99.90;;;;;;5048888;28;20045;-72
2023/07/05 03:41:58;;;;;;;4.85;2.75;;;11.50;99.90;;;;;;5049325;28;20043;-71
2023/07/05 03:44:24;;;;;;;6.90;2.50;;;11.60;99.90;;;;;;5048824;28;20063;-72
2023/07/05 03:46:50;;;;;;;6.22;2.50;;;11.70;99.90;;;;;;5049602;28;20025;-72
2023/07/05 03:49:17;;;;;;;5.00;2.25;;;11.50;99.90;;;;;;5049224;28;20035;-72
2023/07/05 03:51:43;;;;;;;3.42;2.08;;;11.60;99.90;;;;;;5049217;28;20203;-72
2023/07/05 03:54:09;;;;;;;5.10;2.55;;;11.60;99.90;;;;;;5051450;28;20480;-71
2023/07/05 03:56:35;;;;;;;5.18;3.10;;;11.70;99.90;;;;;;5052745;28;20051;-70
2023/07/05 03:59:02;;;;;;;6.68;2.60;;;11.70;99.90;;;;;;5052913;28;20496;-71
2023/07/05 04:01:29;;;;;;;4.80;2.60;;;11.70;99.90;;;;;;5052538;28;20174;-71
2023/07/05 04:04:02;;;;;;;4.70;2.60;;;11.80;99.90;;;;;;5052730;28;20025;-71
2023/07/05 04:06:31;;;;;;;4.55;2.80;;;11.80;99.90;;;;;;5052415;28;20095;-71
2023/07/05 04:08:58;;;;;;;4.65;2.80;;;11.70;99.90;;;;;;5053172;28;20037;-71
2023/07/05 04:11:24;;;;;;;6.25;2.10;;;11.70;99.90;;;;;;5052311;28;20458;-71
2023/07/05 04:13:51;;;;;;;3.75;1.90;;;11.70;99.90;;;;;;5052574;28;20021;-71
2023/07/05 04:16:20;;;;;;;6.35;2.53;;;11.70;99.90;;;;;;5052135;28;20036;-71
2023/07/05 04:18:49;;;;;;;5.07;2.63;;;11.60;99.90;;;;;;5051482;28;20028;-71
2023/07/05 04:21:15;;;;;;;3.92;1.85;;;11.60;99.90;;;;;;5052363;28;20108;-73
2023/07/05 04:23:42;;;;;;;5.18;2.20;;;11.50;99.90;;;;;;5052827;28;20036;-71
2023/07/05 04:26:14;;;;;;;4.63;2.33;;;11.60;99.90;;;;;;5052735;28;20506;-71
2023/07/05 04:28:41;;;;;;;5.87;2.10;;;11.50;99.90;;;;;;5051874;28;20119;-71
2023/07/05 04:31:09;;;;;;;4.13;1.95;;;11.60;99.90;;;;;;5052997;28;20278;-71
2023/07/05 04:33:36;;;;;;;4.75;2.30;;;11.60;99.90;;;;;;5052017;28;20221;-71
2023/07/05 04:36:02;;;;;;;6.30;2.50;;;11.70;99.90;;;;;;5052916;28;20029;-71
2023/07/05 04:38:28;;;;;;;6.13;2.60;;;11.70;99.90;;;;;;5052006;28;20411;-71
2023/07/05 04:40:55;;;;;;;6.55;2.22;;;11.70;99.90;;;;;;5052986;28;20104;-71
2023/07/05 04:43:21;;;;;;;2.45;1.77;;;11.80;99.90;;;;;;5051863;28;20427;-74
2023/07/05 04:45:51;;;;;;;6.03;1.90;;;11.80;99.90;;;;;;5051116;28;20036;-71
2023/07/05 04:48:18;;;;;;;5.28;2.00;;;11.90;99.90;;;;;;5051433;28;20131;-72
2023/07/05 04:50:47;;;;;;;3.05;1.90;;;11.90;99.90;;;;;;5052327;28;20075;-71
2023/07/05 04:53:13;;;;;;;3.47;1.80;;;12.00;99.90;;;;;;5051804;28;20338;-71
2023/07/05 04:55:49;;;;;;;5.97;2.53;;;12.00;99.90;;;;;;5051666;28;20033;-71
2023/07/05 04:58:16;;;;;;;4.50;2.47;;;12.00;99.90;;;;;;5051776;28;20021;-73
2023/07/05 05:00:51;;;;;;;5.30;2.42;;;11.90;99.90;;;;;;5051756;28;20114;-71
2023/07/05 05:03:20;;;;;;;7.38;2.10;;;12.00;99.90;;;;;;5051735;28;20040;-73
2023/07/05 05:05:48;;;;;;;4.50;2.05;;;12.10;99.90;;;;;;5050903;28;20396;-71
2023/07/05 05:08:14;;;;;;;5.60;1.92;;;12.10;99.90;;;;;;5052032;28;20108;-71
2023/07/05 05:10:39;;;;;;;4.20;2.15;;;12.10;99.90;;;;;;5051142;28;20053;-71
2023/07/05 05:13:07;;;;;;;4.20;1.90;;;12.10;99.90;;;;;;5051210;28;20107;-71
2023/07/05 05:15:40;;;;;;;4.90;2.00;;;12.10;99.90;;;;;;5051122;28;20040;-71
2023/07/05 05:18:09;;;;;;;5.90;2.20;;;12.20;99.90;;;;;;5051568;28;20052;-71
2023/07/05 05:20:38;;;;;;;6.53;1.88;;;12.20;99.90;;;;;;5050863;28;20478;-71
2023/07/05 05:23:04;;;;;;;3.88;1.98;;;12.20;99.90;;;;;;5051728;28;20025;-71
2023/07/05 05:25:30;;;;;;;3.80;1.80;;;12.30;99.90;;;;;;5050759;28;20057;-71
2023/07/05 05:27:56;;;;;;;3.83;1.90;;;12.40;99.90;;;;;;5051799;28;20044;-71
2023/07/05 05:30:21;;;;;;;3.33;1.85;;;12.40;99.90;;;;;;5050911;28;20427;-71
2023/07/05 05:32:48;;;;;;;2.58;1.77;;;12.50;99.90;;;;;;5051215;28;20048;-71
2023/07/05 05:35:14;;;;;;;5.00;2.15;;;12.50;99.90;;;;;;5050966;28;20481;-71
2023/07/05 05:37:40;;;;;;;7.75;2.28;;;12.50;99.90;;;;;;5050871;28;20075;-71
2023/07/05 05:40:08;;;;;;;3.72;1.95;;;12.50;99.90;;;;;;5050820;28;20417;-71
2023/07/05 05:42:34;;;;;;;4.60;2.00;;;12.50;99.90;;;;;;5050863;28;20059;-71
2023/07/05 05:45:00;;;;;;;6.53;2.15;;;12.60;99.90;;;;;;5050847;28;20064;-71
2023/07/05 05:47:26;;;;;;;4.78;1.88;;;12.50;99.90;;;;;;5050368;28;20378;-72
2023/07/05 05:49:51;;;;;;;3.03;1.80;;;12.50;99.90;;;;;;5051452;28;20028;-70
2023/07/05 05:52:17;;;;;;;5.70;2.47;;;12.60;99.90;;;;;;5051261;28;20028;-71
2023/07/05 05:54:43;;;;;;;2.13;1.83;;;12.60;99.90;;;;;;5050592;28;20033;-71
2023/07/05 05:57:08;;;;;;;4.63;2.40;;;12.70;99.90;;;;;;5050757;28;20021;-70
2023/07/05 05:59:34;;;;;;;5.18;2.50;;;12.70;99.90;;;;;;5050081;28;20021;-71
2023/07/05 06:02:00;;;;;;;4.85;1.80;;;12.80;99.90;;;;;;5050758;28;20017;-71
2023/07/05 06:04:26;;;;;;;3.60;1.80;;;12.80;99.90;;;;;;5049963;28;20407;-71
2023/07/05 06:06:52;;;;;;;4.78;2.20;;;12.80;99.90;;;;;;5050340;28;20063;-71
2023/07/05 06:09:18;;;;;;;5.35;2.47;;;12.90;99.90;;;;;;5050642;28;20028;-71
2023/07/05 06:11:44;;;;;;;4.38;2.00;;;12.90;99.90;;;;;;5049874;28;20033;-71
2023/07/05 06:14:10;;;;;;;7.93;2.25;;;13.00;99.90;;;;;;5050497;28;20039;-71
2023/07/05 06:16:35;;;;;;;3.13;2.20;;;13.10;99.90;;;;;;5049600;28;20113;-72
2023/07/05 06:19:01;;;;;;;6.50;2.15;;;13.10;99.90;;;;;;5050247;28;20031;-72
2023/07/05 06:21:27;;;;;;;4.80;1.92;;;13.20;99.90;;;;;;5050346;28;20032;-72
2023/07/05 06:23:52;;;;;;;2.60;1.70;;;13.20;99.90;;;;;;5050213;28;20350;-72
2023/07/05 06:26:19;;;;;;;5.03;2.10;;;13.30;99.90;;;;;;5050115;28;20387;-72
2023/07/05 06:28:45;;;;;;;4.18;1.85;;;13.40;99.90;;;;;;5049551;28;20044;-72
2023/07/05 06:31:11;;;;;;;3.65;1.90;;;13.50;99.90;;;;;;5049832;28;20037;-72
2023/07/05 06:33:40;;;;;;;4.55;2.25;;;13.60;99.90;;;;;;5049641;28;20120;-72
2023/07/05 06:36:07;;;;;;;8.23;1.98;;;13.60;99.90;;;;;;5050085;28;20132;-72
2023/07/05 06:38:33;;;;;;;2.80;1.75;;;13.70;99.90;;;;;;5049489;28;20032;-72
2023/07/05 06:40:58;;;;;;;2.47;1.58;;;13.70;99.90;;;;;;5048286;28;20035;-72
2023/07/05 06:43:25;;;;;;;8.80;1.92;;;13.80;99.90;;;;;;5049465;28;20029;-74
2023/07/05 06:45:54;;;;;;;4.95;1.42;;;13.80;99.90;;;;;;5049671;28;20047;-72
2023/07/05 06:48:21;;;;;;;4.47;2.15;;;13.90;99.90;;;;;;5048559;28;20407;-71
2023/07/05 06:50:51;;;;;;;5.25;1.70;;;14.10;99.90;;;;;;5048325;28;20059;-72
2023/07/05 06:53:17;;;;;;;3.67;1.77;;;13.90;99.90;;;;;;5049907;28;20025;-72
2023/07/05 06:55:43;;;;;;;6.43;1.77;;;14.00;99.90;;;;;;5049374;28;20632;-72
2023/07/05 06:58:08;;;;;;;6.93;1.60;;;14.00;99.90;;;;;;5049709;28;20048;-72
2023/07/05 07:00:35;;;;;;;5.85;1.60;;;13.90;99.90;;;;;;5049428;28;20394;-72
2023/07/05 07:03:00;;;;;;;4.57;2.00;;;14.00;99.90;;;;;;5050074;28;20021;-71
2023/07/05 07:05:26;;;;;;;5.53;1.60;;;14.00;99.90;;;;;;5048952;28;20423;-72
2023/07/05 07:07:52;;;;;;;5.38;1.80;;;14.10;99.90;;;;;;5049749;28;20051;-72
2023/07/05 07:10:17;;;;;;;3.75;1.65;;;14.10;99.90;;;;;;5049707;28;20032;-71
2023/07/05 07:12:43;;;;;;;5.47;2.13;;;14.30;99.90;;;;;;5047874;28;20122;-72
2023/07/05 07:15:09;;;;;;;3.58;1.60;;;14.40;99.90;;;;;;5049636;28;20029;-72
2023/07/05 07:17:35;;;;;;;4.13;1.83;;;14.50;99.90;;;;;;5049279;28;20452;-72
2023/07/05 07:20:00;;;;;;;6.47;1.48;;;14.50;99.90;;;;;;5049713;28;20032;-72
2023/07/05 07:22:26;;;;;;;6.68;1.40;;;14.40;99.90;;;;;;5049405;28;20196;-73
2023/07/05 07:24:52;;;;;;;4.15;1.67;;;14.30;99.90;;;;;;5048076;28;20037;-71
2023/07/05 07:27:18;;;;;;;4.15;1.63;;;14.30;99.90;;;;;;5049925;28;20112;-71
2023/07/05 07:29:44;;;;;;;5.05;1.45;;;14.30;99.90;;;;;;5052244;28;20060;-71
2023/07/05 07:32:10;;;;;;;4.85;1.52;;;14.50;99.90;;;;;;5053241;28;20486;-72
2023/07/05 07:34:36;;;;;;;5.07;1.63;;;14.40;99.90;;;;;;5053161;28;20049;-72
2023/07/05 07:37:03;;;;;;;4.05;1.80;;;14.30;99.90;;;;;;5053542;28;20127;-72
2023/07/05 07:39:29;;;;;;;5.50;1.50;;;14.40;99.90;;;;;;5052568;28;20458;-72
2023/07/05 07:41:55;;;;;;;2.95;1.55;;;14.50;99.90;;;;;;5052905;28;20044;-72
2023/07/05 07:44:21;;;;;;;5.22;1.50;;;14.60;99.90;;;;;;5053371;28;20029;-72
2023/07/05 07:46:47;;;;;;;4.07;1.35;;;14.60;99.90;;;;;;5052656;28;20037;-72
2023/07/05 07:49:13;;;;;;;2.58;1.52;;;14.80;99.90;;;;;;5053287;28;20378;-71
2023/07/05 07:51:44;;;;;;;2.50;1.45;;;15.00;99.90;;;;;;5052743;28;20021;-71
2023/07/05 07:54:15;;;;;;;3.67;1.40;;;15.10;99.90;;;;;;5053228;28;20033;-71
2023/07/05 07:56:43;;;;;;;4.53;1.20;;;14.90;99.90;;;;;;5052447;28;20033;-71
2023/07/05 07:59:09;;;;;;;4.00;1.40;;;15.10;99.90;;;;;;5053378;28;20136;-72
2023/07/05 08:01:37;;;;;;;1.60;1.20;;;15.10;99.90;;;;;;5050916;28;20113;-71
2023/07/05 08:04:05;;;;;;;4.05;1.13;;;15.40;99.90;;;;;;5053000;28;20470;-72
2023/07/05 08:06:38;;;;;;;5.32;1.30;;;15.60;99.90;;;;;;5052422;28;20181;-72
2023/07/05 08:09:06;;;;;;;3.00;1.38;;;15.60;99.90;;;;;;5053577;28;20035;-71
2023/07/05 08:11:33;;;;;;;2.95;1.50;;;15.60;99.90;;;;;;5052551;28;20476;-71
2023/07/05 08:13:59;;;;;;;2.13;1.08;;;15.60;99.90;;;;;;5053202;28;20446;-71
2023/07/05 08:16:25;;;;;;;4.32;1.23;;;15.60;99.90;;;;;;5052153;28;20029;-71
2023/07/05 08:18:51;;;;;;;4.00;1.17;;;15.70;99.90;;;;;;5052620;28;20033;-71
2023/07/05 08:21:17;;;;;;;1.25;0.90;;;15.80;99.90;;;;;;5052550;28;20481;-71
2023/07/05 08:23:43;;;;;;;5.10;1.25;;;15.90;99.90;;;;;;5050840;28;20120;-71
2023/07/05 08:26:10;;;;;;;3.17;1.20;;;15.90;99.90;;;;;;5052275;28;20059;-71
2023/07/05 08:28:36;;;;;;;6.95;1.50;;;16.00;99.90;;;;;;5050783;28;20045;-71
2023/07/05 08:31:04;;;;;;;3.97;1.63;;;16.10;99.90;;;;;;5052599;28;20025;-70
2023/07/05 08:33:31;;;;;;;3.70;1.30;;;16.30;99.90;;;;;;5052290;28;20040;-73
2023/07/05 08:36:30;;;;;;;3.60;1.50;;;16.60;99.90;;;;;;5052715;28;20107;-71
2023/07/05 08:38:56;;;;;;;5.60;1.60;;;16.80;99.90;;;;;;5052577;28;20077;-71
2023/07/05 08:41:40;;;;;;;1.60;0.90;;;16.60;99.90;;;;;;5049607;28;20066;-72
2023/07/05 08:44:41;;;;;;;3.22;0.77;;;16.70;99.90;;;;;;5052086;28;20029;-73
2023/07/05 08:47:12;;;;;;;2.15;1.10;;;16.70;99.90;;;;;;5052467;28;20044;-72
2023/07/05 08:49:54;;;;;;;1.50;0.93;;;16.70;99.90;;;;;;5051581;28;20176;-72
2023/07/05 08:52:33;;;;;;;3.90;0.80;;;16.90;99.90;;;;;;5052513;28;20374;-72
2023/07/05 08:55:03;;;;;;;1.33;0.95;;;17.00;99.90;;;;;;5052417;28;20037;-72
2023/07/05 08:57:33;;;;;;;2.05;0.90;;;17.20;99.90;;;;;;5053045;28;20063;-71
2023/07/05 09:00:11;;;;;;;3.30;1.00;;;17.40;99.90;;;;;;5052189;28;20033;-72
2023/07/05 09:02:38;;;;;;;3.13;1.02;;;17.60;99.90;;;;;;5050499;28;20097;-72
2023/07/05 09:05:16;;;;;;;2.88;0.90;;;17.70;99.90;;;;;;5052035;28;20041;-72
2023/07/05 09:07:56;;;;;;;3.55;1.10;;;17.70;99.90;;;;;;5051950;28;20104;-73
2023/07/05 09:10:28;;;;;;;1.92;0.93;;;17.60;99.90;;;;;;5052070;28;20082;-72
2023/07/05 09:13:21;;;;;;;4.93;0.98;;;17.20;99.90;;;;;;5051294;28;20418;-72
2023/07/05 09:16:04;;;;;;;6.80;1.38;;;17.10;99.90;;;;;;5051856;28;20082;-72
2023/07/05 09:18:42;;;;;;;2.22;0.98;;;16.90;99.90;;;;;;5052491;28;20027;-72
2023/07/05 09:21:22;;;;;;;2.92;1.27;;;16.70;99.90;;;;;;5052398;28;20462;-72
2023/07/05 09:23:55;;;;;;;3.97;1.00;;;16.30;99.90;;;;;;5051386;28;20025;-72
2023/07/05 09:26:34;;;;;;;1.73;1.20;;;16.20;99.90;;;;;;5051518;28;20476;-72
2023/07/05 09:29:37;;;;;;;3.90;1.30;;;16.20;99.90;;;;;;5052118;28;20100;-72
2023/07/05 09:32:12;;;;;;;3.28;1.38;;;16.40;99.90;;;;;;5051963;28;20100;-73
2023/07/05 09:34:55;;;;;;;4.53;0.98;;;16.90;99.90;;;;;;5049667;28;20121;-73
2023/07/05 09:37:23;;;;;;;4.05;0.80;;;17.30;99.90;;;;;;5051808;28;20033;-72
2023/07/05 09:40:11;;;;;;;1.00;0.70;;;17.40;99.90;;;;;;5051344;28;20092;-73
2023/07/05 09:42:45;;;;;;;1.77;0.90;;;17.40;99.90;;;;;;5050542;28;20031;-74
2023/07/05 09:45:16;;;;;;;1.13;0.90;;;17.40;99.90;;;;;;5051340;28;20048;-73
2023/07/05 09:47:43;;;;;;;2.05;0.98;;;17.10;99.90;;;;;;5050980;28;20025;-73
2023/07/05 09:50:18;;;;;;;1.83;0.85;;;16.80;99.90;;;;;;5051556;28;20025;-73
2023/07/05 09:52:50;;;;;;;3.25;0.90;;;16.60;99.90;;;;;;5050006;28;20362;-74
2023/07/05 09:55:18;;;;;;;2.38;1.13;;;16.30;99.90;;;;;;5051276;28;20471;-72
2023/07/05 09:57:45;;;;;;;3.33;1.15;;;16.10;99.90;;;;;;5050154;28;20555;-73
2023/07/05 10:00:27;;;;;;;4.25;1.25;;;15.90;99.90;;;;;;5051272;28;20347;-73
2023/07/05 10:02:59;;;;;;;3.30;0.90;;;15.90;99.90;;;;;;5050526;28;20045;-73
2023/07/05 10:05:29;;;;;;;2.08;0.93;;;15.80;99.90;;;;;;5051140;28;20040;-73
2023/07/05 10:08:01;;;;;;;3.28;1.10;;;16.00;99.90;;;;;;5051117;28;20120;-73
2023/07/05 10:10:40;;;;;;;3.33;1.35;;;16.30;99.90;;;;;;5050738;28;20473;-71
2023/07/05 10:13:14;;;;;;;5.68;1.17;;;16.50;99.90;;;;;;5050991;28;20049;-71
2023/07/05 10:15:47;;;;;;;3.92;1.30;;;16.70;99.90;;;;;;5048798;28;20490;-75
2023/07/05 10:18:25;;;;;;;;;;;16.70;99.90;;;;;;5051036;28;20025;-74
2023/07/05 10:20:50;;;;;;;2.63;1.02;;;16.60;99.90;;;;;;5049976;28;19974;-75
2023/07/05 10:23:22;;;;;;;3.22;1.40;;;16.40;99.90;;;;;;5050317;28;20439;-74
2023/07/05 10:25:49;;;;;;;4.30;1.10;;;16.30;99.90;;;;;;5049419;28;20446;-74
2023/07/05 10:28:18;;;;;;;5.45;1.33;;;16.10;99.90;;;;;;5050090;28;20028;-74
2023/07/05 10:31:07;;;;;;;3.75;1.30;;;16.20;99.90;;;;;;5050039;28;20065;-73
2023/07/05 10:33:37;;;;;;;4.72;1.55;;;16.50;99.90;;;;;;5050350;28;20029;-73
2023/07/05 10:36:09;;;;;;;3.75;1.30;;;16.90;99.90;;;;;;5050091;28;20041;-73
2023/07/05 10:38:50;;;;;;;5.65;1.02;;;17.20;99.90;;;;;;5050141;28;20462;-73
2023/07/05 10:41:42;;;;;;;3.85;1.00;;;17.50;99.90;;;;;;5050341;28;20095;-73
2023/07/05 10:44:27;;;;;;;1.83;0.90;;;17.70;99.90;;;;;;5049499;28;20045;-73
2023/07/05 10:46:55;;;;;;;4.68;1.05;;;17.50;99.90;;;;;;5049384;28;20036;-73
2023/07/05 10:49:22;;;;;;;2.03;0.98;;;17.40;99.90;;;;;;5050193;28;20029;-73
2023/07/05 10:51:55;;;;;;;1.77;0.50;;;17.30;99.90;;;;;;5049374;28;20025;-72
2023/07/05 10:54:42;;;;;;;2.88;0.90;;;17.40;99.90;;;;;;5050413;28;20037;-73
2023/07/05 10:57:24;;;;;;;1.40;0.60;;;17.60;99.90;;;;;;5050204;28;20033;-72
2023/07/05 11:00:13;;;;;;;1.40;0.60;;;17.70;99.90;;;;;;5049969;28;20021;-72
2023/07/05 11:02:45;;;;;;;3.28;0.90;;;17.60;99.90;;;;;;5049244;28;20117;-75
2023/07/05 11:05:37;;;;;;;;;;;17.80;99.90;;;;;;5050492;28;20037;-72
2023/07/05 11:08:04;;;;;;;3.03;0.90;;;17.90;99.90;;;;;;5040924;28;19905;-73
2023/07/05 11:10:41;;;;;;;2.05;0.63;;;18.00;99.90;;;;;;5050175;28;20052;-73
2023/07/05 11:13:14;;;;;;;1.48;0.57;;;18.30;99.90;;;;;;5050505;28;20025;-73
2023/07/05 11:15:41;;;;;;;3.10;1.10;;;18.40;99.90;;;;;;5049548;28;20395;-75
2023/07/05 11:18:17;;;;;;;3.05;1.13;;;18.50;99.90;;;;;;5049904;28;20032;-73
2023/07/05 11:20:47;;;;;;;1.55;0.95;;;18.60;99.90;;;;;;5049541;28;20128;-73
2023/07/05 11:23:44;;;;;;;1.30;0.70;;;18.90;99.90;;;;;;5050346;28;20029;-73
2023/07/05 11:26:11;;;;;;;4.30;0.50;;;19.00;99.90;;;;;;5049838;28;20116;-73
2023/07/05 11:28:43;;;;;;;2.25;0.90;;;19.10;99.90;;;;;;5049675;28;20194;-73
2023/07/05 11:31:28;;;;;;;3.28;0.77;;;19.10;99.90;;;;;;5050197;28;20036;-73
2023/07/05 11:34:25;;;;;;;2.72;0.88;;;19.10;99.90;;;;;;5028104;28;20041;-73
2023/07/05 11:37:13;;;;;;;2.50;0.77;;;19.00;99.90;;;;;;5050559;28;20068;-73
2023/07/05 11:39:39;;;;;;;2.00;0.50;;;19.00;99.90;;;;;;5030285;28;20041;-72
2023/07/05 11:42:14;;;;;;;2.70;0.45;;;19.20;99.90;;;;;;5049792;28;20025;-73
2023/07/05 11:44:53;;;;;;;0.50;0.40;;;19.30;99.90;;;;;;5049879;28;20382;-72
2023/07/05 11:47:24;;;;;;;0.55;0.50;;;19.40;99.90;;;;;;5050174;28;20033;-71
2023/07/05 11:49:57;;;;;;;1.92;0.52;;;19.40;99.90;;;;;;5049575;28;20036;-72
2023/07/05 11:52:26;;;;;;;0.63;0.50;;;19.30;99.90;;;;;;5050346;28;20029;-73
2023/07/05 11:55:10;;;;;;;1.48;0.38;;;19.20;99.90;;;;;;5049374;28;20083;-72
2023/07/05 11:57:42;;;;;;;2.53;0.45;;;19.40;99.90;;;;;;5049941;28;20438;-72
2023/07/05 12:00:18;;;;;;;1.48;0.55;;;19.30;99.90;;;;;;5050061;28;20032;-72
2023/07/05 12:02:53;;;;;;;1.95;0.52;;;19.30;99.90;;;;;;5049889;28;20029;-74
2023/07/05 12:05:22;;;;;;;2.25;0.30;;;19.20;99.90;;;;;;5050278;28;20090;-72
2023/07/05 12:08:06;;;;;;;3.33;0.50;;;19.10;99.90;;;;;;5049969;28;20087;-72
2023/07/05 12:10:35;;;;;;;1.00;0.40;;;18.90;99.90;;;;;;5050351;28;20032;-72
2023/07/05 12:13:03;;;;;;;2.05;0.55;;;18.70;99.90;;;;;;5049166;28;20025;-71
2023/07/05 12:15:29;;;;;;;2.08;0.40;;;18.40;99.90;;;;;;5051659;28;20355;-72
2023/07/05 12:17:55;;;;;;;1.40;0.30;;;18.20;99.90;;;;;;5050725;28;20033;-71
2023/07/05 12:20:43;;;;;;;1.02;0.60;;;18.20;99.90;;;;;;5052822;28;20098;-72
2023/07/05 12:23:14;;;;;;;1.88;0.40;;;18.30;99.90;;;;;;5052408;28;20051;-72
2023/07/05 12:25:45;;;;;;;1.67;0.60;;;18.50;99.90;;;;;;5052492;28;20025;-71
2023/07/05 12:28:16;;;;;;;1.25;0.40;;;18.80;99.90;;;;;;5052464;28;20131;-72
2023/07/05 12:30:41;;;;;;;0.85;0.50;;;18.90;99.90;;;;;;5051023;28;20561;-71
2023/07/05 12:33:26;;;;;;;1.27;0.50;;;19.10;99.90;;;;;;5052237;28;20100;-72
2023/07/05 12:36:07;;;;;;;2.28;0.47;;;19.20;99.90;;;;;;5051900;28;20115;-72
2023/07/05 12:38:33;;;;;;;0.73;0.47;;;19.40;99.90;;;;;;5052493;28;20036;-71
2023/07/05 12:41:00;;;;;;;1.50;0.28;;;19.40;99.90;;;;;;5052252;28;20025;-71
2023/07/05 12:43:30;;;;;;;0.40;0.25;;;19.60;99.90;;;;;;5052618;28;20029;-71
2023/07/05 12:46:12;;;;;;;2.17;0.50;;;19.70;99.90;;;;;;5050238;28;20415;-72
2023/07/05 12:48:38;;;;;;;5.65;0.40;;;19.60;99.90;;;;;;5052601;28;20029;-71
2023/07/05 12:51:12;;;;;;;3.33;0.77;;;19.70;99.90;;;;;;5051695;28;20029;-72
2023/07/05 12:53:38;;;;;;;2.67;0.55;;;19.70;99.90;;;;;;5052636;28;20028;-72
2023/07/05 12:56:06;;;;;;;5.20;0.63;;;19.60;99.90;;;;;;5051108;28;20474;-72
2023/07/05 12:58:32;;;;;;;1.27;0.30;;;19.60;99.90;;;;;;5052417;28;20120;-72
2023/07/05 13:01:00;;;;;;;1.55;0.57;;;19.60;99.90;;;;;;5051229;28;20121;-72
2023/07/05 13:03:28;;;;;;;3.22;0.30;;;19.60;99.90;;;;;;5051840;28;20032;-72
2023/07/05 13:05:55;;;;;;;1.25;0.30;;;19.60;99.90;;;;;;5051587;28;20119;-72